Archer, Idaho
Current Conditions -  °F | °C
As of 8:53 PM on Monday 20 Oct 2014 (Local Time) from KRXE Reporting Station
Clear Clear  
Wind Chill: 60°   Ceiling: Unl
Heat Index: 60°   Visibility: 10mi
Dew Point: 34°   Wind: 8mph
Humidity: 38%   Direction: 170°S
Pressure: 29.91"   Gusts: NA
Location:  43.7568°N, 111.624°W
Report Text: KRXE 210253Z AUTO 17007KT 10SM CLR 16/01 A2991 RMK AO2 SLP116 T01560011 56007
Loading
Personal Weather Stations






























Interactive Weather Map
Tropical Storm Tracking
New forecast layout! Learn more

10-Day Weather Forecast

Advertisements
Track Severe Weather on mobile